Time,TemperatureF,DewpointF,PressureIn,WindDirection,WindDirectionDegrees,WindSpeedMPH,WindSpeedGustMPH,Humidity,HourlyPrecipIn,Conditions,Clouds,dailyrainin,SoftwareType,DateUTC
2013-03-28 00:07:00,40.8,36.0,30.24,WSW,255,0.0,0.0,83,0.00,,,0.00,weatherlink.com 1.10,2013-03-28 04:07:00,
2013-03-28 00:22:00,40.5,36.0,30.24,WSW,255,0.0,0.0,84,0.00,,,0.00,weatherlink.com 1.10,2013-03-28 04:22:00,
2013-03-28 00:37:00,40.1,36.0,30.24,WSW,255,0.0,0.0,85,0.00,,,0.00,weatherlink.com 1.10,2013-03-28 04:37:00,
2013-03-28 00:52:00,40.3,37.0,30.23,WSW,255,0.0,0.0,86,0.00,,,0.00,weatherlink.com 1.10,2013-03-28 04:52:00,
2013-03-28 01:07:00,39.9,36.0,30.23,WSW,255,0.0,0.0,86,0.00,,,0.00,weatherlink.com 1.10,2013-03-28 05:07:00,
2013-03-28 01:22:00,39.5,36.0,30.23,WSW,255,0.0,0.0,87,0.00,,,0.00,weatherlink.com 1.10,2013-03-28 05:22:00,
2013-03-28 01:37:00,39.3,36.0,30.23,WSW,255,0.0,0.0,88,0.00,,,0.00,weatherlink.com 1.10,2013-03-28 05:37:00,
2013-03-28 01:52:00,39.2,36.0,30.23,WSW,255,0.0,0.0,88,0.00,,,0.00,weatherlink.com 1.10,2013-03-28 05:52:00,
2013-03-28 02:07:00,40.4,38.0,30.24,NE,47,2.0,3.0,92,0.00,,,0.00,weatherlink.com 1.10,2013-03-28 06:07:00,
2013-03-28 02:22:00,40.4,38.0,30.24,NE,49,0.0,1.0,91,0.00,,,0.00,weatherlink.com 1.10,2013-03-28 06:22:00,
2013-03-28 02:37:00,40.7,38.0,30.24,NE,50,1.0,1.0,90,0.00,,,0.00,weatherlink.com 1.10,2013-03-28 06:37:00,
2013-03-28 02:52:00,41.7,36.0,30.24,NE,51,1.0,4.0,80,0.00,,,0.00,weatherlink.com 1.10,2013-03-28 06:52:00,
2013-03-28 03:08:00,41.6,35.0,30.24,NE,47,3.0,3.0,78,0.00,,,0.00,weatherlink.com 1.10,2013-03-28 07:08:00,
2013-03-28 03:23:00,41.1,34.0,30.24,NE,41,1.0,2.0,76,0.00,,,0.00,weatherlink.com 1.10,2013-03-28 07:23:00,
2013-03-28 03:38:00,40.6,34.0,30.24,ENE,58,0.0,3.0,76,0.00,,,0.00,weatherlink.com 1.10,2013-03-28 07:38:00,
2013-03-28 03:53:00,41.1,32.0,30.25,NNE,32,5.0,8.0,71,0.00,,,0.00,weatherlink.com 1.10,2013-03-28 07:53:00,
2013-03-28 04:08:00,41.4,31.0,30.24,NE,53,3.0,6.0,67,0.00,,,0.00,weatherlink.com 1.10,2013-03-28 08:08:00,
2013-03-28 04:23:00,40.8,31.0,30.25,ENE,78,4.0,5.0,68,0.00,,,0.00,weatherlink.com 1.10,2013-03-28 08:23:00,
2013-03-28 04:38:00,40.5,31.0,30.25,ENE,78,2.0,5.0,68,0.00,,,0.00,weatherlink.com 1.10,2013-03-28 08:38:00,
2013-03-28 04:53:00,40.2,31.0,30.26,ENE,60,3.0,4.0,69,0.00,,,0.00,weatherlink.com 1.10,2013-03-28 08:53:00,
2013-03-28 05:08:00,39.9,30.0,30.26,NE,37,3.0,5.0,68,0.00,,,0.00,weatherlink.com 1.10,2013-03-28 09:08:00,
2013-03-28 05:23:00,39.7,31.0,30.26,NE,53,4.0,7.0,70,0.00,,,0.00,weatherlink.com 1.10,2013-03-28 09:23:00,
2013-03-28 05:38:00,39.3,30.0,30.27,ENE,65,1.0,6.0,70,0.00,,,0.00,weatherlink.com 1.10,2013-03-28 09:38:00,
2013-03-28 05:53:00,38.9,30.0,30.27,NE,51,2.0,5.0,70,0.00,,,0.00,weatherlink.com 1.10,2013-03-28 09:53:00,
2013-03-28 06:08:00,38.6,30.0,30.27,ENE,65,2.0,3.0,71,0.00,,,0.00,weatherlink.com 1.10,2013-03-28 10:08:00,
2013-03-28 06:23:00,38.5,29.0,30.28,NE,56,1.0,4.0,70,0.00,,,0.00,weatherlink.com 1.10,2013-03-28 10:23:00,
2013-03-28 06:38:00,38.1,29.0,30.28,ENE,70,4.0,4.0,71,0.00,,,0.00,weatherlink.com 1.10,2013-03-28 10:38:00,
2013-03-28 06:53:00,37.9,30.0,30.28,ENE,70,1.0,4.0,73,0.00,,,0.00,weatherlink.com 1.10,2013-03-28 10:53:00,
2013-03-28 07:08:00,37.6,30.0,30.28,ENE,65,1.0,3.0,75,0.00,,,0.00,weatherlink.com 1.10,2013-03-28 11:08:00,
2013-03-28 07:23:00,38.1,30.0,30.29,NE,53,3.0,5.0,73,0.00,,,0.00,weatherlink.com 1.10,2013-03-28 11:23:00,
2013-03-28 07:38:00,38.9,31.0,30.29,ENE,60,3.0,6.0,74,0.00,,,0.00,weatherlink.com 1.10,2013-03-28 11:38:00,
2013-03-28 07:53:00,39.7,31.0,30.30,ENE,74,1.0,6.0,70,0.00,,,0.00,weatherlink.com 1.10,2013-03-28 11:53:00,
2013-03-28 08:08:00,39.9,30.0,30.30,NE,37,4.0,7.0,67,0.00,,,0.00,weatherlink.com 1.10,2013-03-28 12:08:00,
2013-03-28 08:23:00,41.0,31.0,30.31,ENE,60,3.0,8.0,67,0.00,,,0.00,weatherlink.com 1.10,2013-03-28 12:23:00,
2013-03-28 08:38:00,42.2,31.0,30.31,NE,53,6.0,9.0,64,0.00,,,0.00,weatherlink.com 1.10,2013-03-28 12:38:00,
2013-03-28 08:53:00,43.1,30.0,30.32,NE,56,5.0,14.0,60,0.00,,,0.00,weatherlink.com 1.10,2013-03-28 12:53:00,
2013-03-28 09:08:00,43.9,29.0,30.31,NE,46,10.0,13.0,57,0.00,,,0.00,weatherlink.com 1.10,2013-03-28 13:08:00,
2013-03-28 09:23:00,44.3,31.0,30.31,NE,46,13.0,16.0,59,0.00,,,0.00,weatherlink.com 1.10,2013-03-28 13:23:00,
2013-03-28 09:39:00,45.0,31.0,30.31,NE,53,12.0,13.0,58,0.00,,,0.00,weatherlink.com 1.10,2013-03-28 13:39:00,
2013-03-28 09:54:00,45.8,30.0,30.32,NE,46,12.0,14.0,55,0.00,,,0.00,weatherlink.com 1.10,2013-03-28 13:54:00,
2013-03-28 10:09:00,46.8,31.0,30.31,NNW,341,7.0,11.0,54,0.00,,,0.00,weatherlink.com 1.10,2013-03-28 14:09:00,
2013-03-28 10:24:00,47.4,29.0,30.31,ENE,74,3.0,11.0,49,0.00,,,0.00,weatherlink.com 1.10,2013-03-28 14:24:00,
2013-03-28 10:39:00,47.9,29.0,30.31,NE,44,8.0,12.0,49,0.00,,,0.00,weatherlink.com 1.10,2013-03-28 14:39:00,
2013-03-28 10:54:00,48.5,29.0,30.31,NNE,13,9.0,12.0,48,0.00,,,0.00,weatherlink.com 1.10,2013-03-28 14:54:00,
2013-03-28 11:09:00,49.3,30.0,30.31,NE,37,12.0,12.0,47,0.00,,,0.00,weatherlink.com 1.10,2013-03-28 15:09:00,
2013-03-28 11:24:00,49.5,29.0,30.31,NNE,33,7.0,11.0,46,0.00,,,0.00,weatherlink.com 1.10,2013-03-28 15:24:00,
2013-03-28 11:39:00,50.2,28.0,30.30,NE,53,9.0,13.0,43,0.00,,,0.00,weatherlink.com 1.10,2013-03-28 15:39:00,
2013-03-28 11:54:00,50.4,28.0,30.30,NE,39,5.0,13.0,43,0.00,,,0.00,weatherlink.com 1.10,2013-03-28 15:54:00,
2013-03-28 12:09:00,50.9,29.0,30.30,NE,40,8.0,14.0,44,0.00,,,0.00,weatherlink.com 1.10,2013-03-28 16:09:00,
2013-03-28 12:24:00,51.1,29.0,30.29,NNW,341,3.0,15.0,43,0.00,,,0.00,weatherlink.com 1.10,2013-03-28 16:24:00,
2013-03-28 12:39:00,52.0,28.0,30.29,NNE,33,11.0,15.0,40,0.00,,,0.00,weatherlink.com 1.10,2013-03-28 16:39:00,
2013-03-28 12:54:00,51.9,28.0,30.28,NNE,29,6.0,10.0,40,0.00,,,0.00,weatherlink.com 1.10,2013-03-28 16:54:00,
2013-03-28 13:09:00,52.5,29.0,30.27,North,354,6.0,13.0,41,0.00,,,0.00,weatherlink.com 1.10,2013-03-28 17:09:00,
2013-03-28 13:24:00,53.2,30.0,30.27,West,276,5.0,9.0,41,0.00,,,0.00,weatherlink.com 1.10,2013-03-28 17:24:00,
2013-03-28 13:39:00,53.5,30.0,30.26,NE,40,10.0,16.0,40,0.00,,,0.00,weatherlink.com 1.10,2013-03-28 17:39:00,
2013-03-28 13:54:00,54.8,28.0,30.25,NNE,20,7.0,13.0,36,0.00,,,0.00,weatherlink.com 1.10,2013-03-28 17:54:00,
2013-03-28 14:09:00,55.3,31.0,30.25,NNW,343,9.0,12.0,39,0.00,,,0.00,weatherlink.com 1.10,2013-03-28 18:09:00,
2013-03-28 14:25:00,55.5,28.0,30.24,NNW,334,5.0,11.0,35,0.00,,,0.00,weatherlink.com 1.10,2013-03-28 18:25:00,
2013-03-28 14:40:00,56.3,29.0,30.24,North,355,8.0,12.0,35,0.00,,,0.00,weatherlink.com 1.10,2013-03-28 18:40:00,
2013-03-28 14:55:00,56.6,28.0,30.23,WNW,301,7.0,13.0,34,0.00,,,0.00,weatherlink.com 1.10,2013-03-28 18:55:00,
2013-03-28 15:10:00,57.1,30.0,30.23,WNW,283,11.0,15.0,35,0.00,,,0.00,weatherlink.com 1.10,2013-03-28 19:10:00,
2013-03-28 15:25:00,57.1,27.0,30.22,WNW,285,4.0,11.0,32,0.00,,,0.00,weatherlink.com 1.10,2013-03-28 19:25:00,
2013-03-28 15:40:00,57.5,28.0,30.22,WNW,283,7.0,14.0,33,0.00,,,0.00,weatherlink.com 1.10,2013-03-28 19:40:00,
2013-03-28 15:55:00,58.5,33.0,30.21,NNE,16,6.0,13.0,38,0.00,,,0.00,weatherlink.com 1.10,2013-03-28 19:55:00,
2013-03-28 16:10:00,58.0,27.0,30.20,WNW,288,3.0,10.0,31,0.00,,,0.00,weatherlink.com 1.10,2013-03-28 20:10:00,
2013-03-28 16:25:00,58.9,29.0,30.20,NNW,343,3.0,12.0,32,0.00,,,0.00,weatherlink.com 1.10,2013-03-28 20:25:00,
2013-03-28 16:40:00,59.1,28.0,30.20,WNW,297,5.0,13.0,30,0.00,,,0.00,weatherlink.com 1.10,2013-03-28 20:40:00,
2013-03-28 16:55:00,59.1,29.0,30.19,NE,37,9.0,16.0,32,0.00,,,0.00,weatherlink.com 1.10,2013-03-28 20:55:00,
2013-03-28 17:10:00,59.6,28.0,30.19,NNE,26,7.0,14.0,30,0.00,,,0.00,weatherlink.com 1.10,2013-03-28 21:10:00,
2013-03-28 17:25:00,59.8,29.0,30.18,NNW,340,6.0,13.0,31,0.00,,,0.00,weatherlink.com 1.10,2013-03-28 21:25:00,
2013-03-28 17:40:00,59.5,28.0,30.19,NNW,330,4.0,12.0,30,0.00,,,0.00,weatherlink.com 1.10,2013-03-28 21:40:00,
2013-03-28 17:55:00,60.2,27.0,30.19,NNW,346,11.0,12.0,28,0.00,,,0.00,weatherlink.com 1.10,2013-03-28 21:55:00,
2013-03-28 18:10:00,60.3,28.0,30.19,NNW,336,4.0,9.0,29,0.00,,,0.00,weatherlink.com 1.10,2013-03-28 22:10:00,
2013-03-28 18:25:00,60.2,30.0,30.19,NNE,18,6.0,11.0,32,0.00,,,0.00,weatherlink.com 1.10,2013-03-28 22:25:00,
2013-03-28 18:40:00,60.3,29.0,30.20,NNW,332,6.0,8.0,30,0.00,,,0.00,weatherlink.com 1.10,2013-03-28 22:40:00,
2013-03-28 18:55:00,59.2,33.0,30.21,NE,40,5.0,11.0,37,0.00,,,0.00,weatherlink.com 1.10,2013-03-28 22:55:00,
2013-03-28 19:10:00,58.4,31.0,30.21,NE,39,6.0,11.0,36,0.00,,,0.00,weatherlink.com 1.10,2013-03-28 23:10:00,
2013-03-28 19:25:00,57.5,32.0,30.22,NE,56,4.0,5.0,38,0.00,,,0.00,weatherlink.com 1.10,2013-03-28 23:25:00,
2013-03-28 19:40:00,56.2,33.0,30.23,NE,37,2.0,3.0,41,0.00,,,0.00,weatherlink.com 1.10,2013-03-28 23:40:00,
2013-03-28 19:55:00,54.8,32.0,30.24,ENE,67,0.0,1.0,43,0.00,,,0.00,weatherlink.com 1.10,2013-03-28 23:55:00,
2013-03-28 20:10:00,52.7,34.0,30.24,ENE,67,0.0,0.0,49,0.00,,,0.00,weatherlink.com 1.10,2013-03-29 00:10:00,
2013-03-28 20:25:00,50.7,33.0,30.25,ENE,67,0.0,0.0,52,0.00,,,0.00,weatherlink.com 1.10,2013-03-29 00:25:00,
2013-03-28 20:40:00,49.4,34.0,30.25,ENE,67,0.0,0.0,56,0.00,,,0.00,weatherlink.com 1.10,2013-03-29 00:40:00,
2013-03-28 20:55:00,48.2,34.0,30.25,ENE,67,0.0,0.0,58,0.00,,,0.00,weatherlink.com 1.10,2013-03-29 00:55:00,
2013-03-28 21:10:00,47.2,34.0,30.26,ENE,67,0.0,0.0,61,0.00,,,0.00,weatherlink.com 1.10,2013-03-29 01:10:00,
2013-03-28 21:25:00,46.2,34.0,30.26,ENE,67,0.0,0.0,62,0.00,,,0.00,weatherlink.com 1.10,2013-03-29 01:25:00,
2013-03-28 21:40:00,45.6,34.0,30.27,ENE,67,0.0,0.0,65,0.00,,,0.00,weatherlink.com 1.10,2013-03-29 01:40:00,
2013-03-28 21:55:00,45.1,34.0,30.28,ENE,67,0.0,0.0,66,0.00,,,0.00,weatherlink.com 1.10,2013-03-29 01:55:00,
2013-03-28 22:10:00,44.5,35.0,30.28,ENE,67,0.0,0.0,69,0.00,,,0.00,weatherlink.com 1.10,2013-03-29 02:10:00,
2013-03-28 22:25:00,43.9,35.0,30.29,ENE,67,0.0,0.0,70,0.00,,,0.00,weatherlink.com 1.10,2013-03-29 02:25:00,
2013-03-28 22:40:00,43.5,35.0,30.29,ENE,67,0.0,0.0,71,0.00,,,0.00,weatherlink.com 1.10,2013-03-29 02:40:00,
2013-03-28 22:55:00,43.3,36.0,30.29,ENE,68,0.0,0.0,74,0.00,,,0.00,weatherlink.com 1.10,2013-03-29 02:55:00,
2013-03-28 23:10:00,42.7,36.0,30.30,ENE,68,0.0,0.0,76,0.00,,,0.00,weatherlink.com 1.10,2013-03-29 03:10:00,
2013-03-28 23:25:00,42.6,36.0,30.30,ENE,68,0.0,0.0,77,0.00,,,0.00,weatherlink.com 1.10,2013-03-29 03:25:00,
2013-03-28 23:40:00,42.4,36.0,30.30,ENE,68,0.0,0.0,79,0.00,,,0.00,weatherlink.com 1.10,2013-03-29 03:40:00,
2013-03-28 23:55:00,42.3,37.0,30.29,ENE,68,0.0,0.0,80,0.00,,,0.00,weatherlink.com 1.10,2013-03-29 03:55:00,